createdAt,value
2022-12-16T00:01:08.710Z,18.13
2022-12-16T00:03:35.902Z,17.83
2022-12-16T00:06:04.549Z,16.43
2022-12-16T00:08:34.792Z,17.70
2022-12-16T00:11:01.686Z,16.97
2022-12-16T00:13:29.748Z,16.57
2022-12-16T00:15:56.441Z,17.73
2022-12-16T00:18:22.865Z,16.70
2022-12-16T00:20:51.233Z,18.77
2022-12-16T00:23:18.102Z,17.50
2022-12-16T00:25:45.499Z,17.03
2022-12-16T00:28:12.569Z,17.87
2022-12-16T00:30:39.260Z,18.00
2022-12-16T00:33:05.779Z,18.07
2022-12-16T00:35:32.391Z,16.83
2022-12-16T00:37:58.816Z,17.00
2022-12-16T00:40:25.446Z,17.50
2022-12-16T00:42:52.182Z,17.97
2022-12-16T00:45:18.742Z,19.53
2022-12-16T00:47:45.128Z,18.53
2022-12-16T00:50:11.608Z,18.00
2022-12-16T00:52:38.334Z,18.60
2022-12-16T00:55:04.921Z,17.37
2022-12-16T00:57:31.328Z,17.63
2022-12-16T00:59:57.675Z,17.27
2022-12-16T01:02:24.201Z,18.53
2022-12-16T01:04:50.741Z,17.07
2022-12-16T01:07:17.122Z,17.33
2022-12-16T01:09:43.510Z,18.07
2022-12-16T01:12:09.876Z,17.20
2022-12-16T01:14:36.224Z,18.27
2022-12-16T01:17:02.708Z,16.77
2022-12-16T01:19:29.149Z,18.70
2022-12-16T01:21:55.518Z,16.90
2022-12-16T01:24:21.965Z,16.00
2022-12-16T01:26:48.393Z,17.50
2022-12-16T01:29:14.950Z,16.07
2022-12-16T01:31:41.506Z,16.50
2022-12-16T01:34:09.165Z,16.27
2022-12-16T01:36:35.584Z,16.17
2022-12-16T01:39:01.966Z,15.10
2022-12-16T01:41:28.319Z,15.37
2022-12-16T01:44:12.548Z,14.97
2022-12-16T01:46:39.108Z,15.63
2022-12-16T01:49:12.404Z,14.57
2022-12-16T01:51:47.509Z,14.07
2022-12-16T01:54:25.676Z,15.33
2022-12-16T01:56:54.967Z,14.80
2022-12-16T01:59:22.965Z,14.60
2022-12-16T02:01:49.492Z,14.93
2022-12-16T02:04:15.938Z,14.97
2022-12-16T02:06:42.303Z,16.30
2022-12-16T02:09:11.282Z,15.63
2022-12-16T02:11:40.663Z,15.33
2022-12-16T02:14:06.997Z,14.83
2022-12-16T02:16:42.922Z,15.47
2022-12-16T02:19:15.408Z,15.07
2022-12-16T02:21:48.964Z,15.03
2022-12-16T02:24:27.405Z,16.20
2022-12-16T02:27:00.034Z,14.20
2022-12-16T02:29:32.603Z,14.97
2022-12-16T02:32:02.517Z,15.00
2022-12-16T02:34:32.030Z,15.17
2022-12-16T02:37:18.491Z,15.37
2022-12-16T02:39:48.592Z,15.47
2022-12-16T02:42:19.266Z,15.33
2022-12-16T02:44:53.022Z,15.47
2022-12-16T02:47:19.419Z,15.33
2022-12-16T02:49:47.595Z,15.13
2022-12-16T02:52:14.758Z,15.53
2022-12-16T02:54:41.282Z,15.07
2022-12-16T02:57:26.644Z,15.23
2022-12-16T03:00:02.255Z,14.87
2022-12-16T03:02:30.525Z,15.60
2022-12-16T03:05:04.192Z,15.57
2022-12-16T03:07:37.257Z,15.33
2022-12-16T03:10:08.100Z,16.20
2022-12-16T03:12:35.778Z,15.30
2022-12-16T03:15:02.685Z,14.97
2022-12-16T03:17:29.228Z,14.77
2022-12-16T03:20:05.426Z,16.27
2022-12-16T03:22:34.279Z,15.73
2022-12-16T03:25:00.690Z,17.27
2022-12-16T03:27:31.215Z,16.47
2022-12-16T03:30:06.797Z,16.60
2022-12-16T03:32:39.191Z,16.07
2022-12-16T03:35:19.710Z,16.77
2022-12-16T03:37:48.062Z,15.23
2022-12-16T03:40:15.025Z,15.60
2022-12-16T03:42:42.385Z,15.90
2022-12-16T03:45:11.426Z,16.37
2022-12-16T03:47:37.865Z,15.93
2022-12-16T03:50:04.364Z,16.33
2022-12-16T03:52:30.781Z,16.20
2022-12-16T03:54:57.116Z,15.87
2022-12-16T03:57:23.799Z,15.70
2022-12-16T03:59:50.218Z,15.83
2022-12-16T04:02:16.718Z,16.47
2022-12-16T04:04:43.255Z,16.37
2022-12-16T04:07:21.499Z,15.90
2022-12-16T04:09:48.659Z,15.87
2022-12-16T04:12:33.578Z,16.40
2022-12-16T04:15:18.475Z,16.23
2022-12-16T04:18:03.279Z,16.30
2022-12-16T04:20:50.142Z,15.87
2022-12-16T04:23:36.082Z,16.93
2022-12-16T04:26:02.893Z,16.73
2022-12-16T04:28:29.508Z,17.77
2022-12-16T04:30:56.319Z,16.77
2022-12-16T04:33:41.706Z,17.73
2022-12-16T04:36:26.587Z,17.40
2022-12-16T04:39:11.631Z,17.57
2022-12-16T04:41:56.697Z,18.20
2022-12-16T04:44:41.660Z,17.60
2022-12-16T04:47:26.838Z,17.83
2022-12-16T04:50:11.751Z,18.70
2022-12-16T04:52:56.677Z,17.97
2022-12-16T04:55:41.674Z,18.50
2022-12-16T04:58:26.605Z,17.83
2022-12-16T05:01:11.436Z,16.27
2022-12-16T05:03:56.478Z,17.00
2022-12-16T05:06:41.581Z,15.73
2022-12-16T05:09:26.482Z,16.47
2022-12-16T05:12:11.421Z,16.27
2022-12-16T05:14:56.537Z,17.10
2022-12-16T05:17:41.624Z,16.70
2022-12-16T05:20:26.546Z,16.70
2022-12-16T05:23:14.133Z,16.43
2022-12-16T05:25:59.222Z,17.10
2022-12-16T05:28:44.215Z,15.97
2022-12-16T05:31:29.553Z,17.40
2022-12-16T05:34:14.715Z,16.57
2022-12-16T05:36:59.962Z,16.23
2022-12-16T05:39:44.831Z,16.63
2022-12-16T05:42:29.979Z,16.40
2022-12-16T05:45:14.826Z,17.17
2022-12-16T05:47:59.673Z,18.83
2022-12-16T05:50:49.037Z,19.10
2022-12-16T05:53:34.426Z,17.60
2022-12-16T05:56:19.795Z,18.10
2022-12-16T05:59:04.447Z,17.73
2022-12-16T06:01:49.496Z,18.30
2022-12-16T06:04:34.620Z,18.57
2022-12-16T06:07:19.783Z,18.33
2022-12-16T06:10:04.628Z,19.00
2022-12-16T06:12:49.978Z,19.37
2022-12-16T06:15:35.427Z,19.47
2022-12-16T06:18:20.281Z,19.17
2022-12-16T06:21:05.120Z,20.43
2022-12-16T06:23:50.163Z,21.00
2022-12-16T06:26:35.263Z,20.20
2022-12-16T06:29:20.530Z,20.87
2022-12-16T06:32:05.446Z,21.57
2022-12-16T06:34:50.739Z,20.93
2022-12-16T06:37:35.752Z,21.20
2022-12-16T06:40:20.656Z,20.87
2022-12-16T06:43:05.501Z,22.40
2022-12-16T06:45:50.610Z,22.70
2022-12-16T06:48:35.899Z,24.37
2022-12-16T06:51:21.082Z,22.13
2022-12-16T06:54:06.069Z,27.30
2022-12-16T06:56:52.743Z,21.87
2022-12-16T06:59:37.656Z,24.17
2022-12-16T07:02:22.641Z,21.70
2022-12-16T07:05:07.822Z,22.40
2022-12-16T07:07:52.778Z,21.10
2022-12-16T07:10:37.854Z,20.97
2022-12-16T07:13:22.737Z,19.77
2022-12-16T07:16:07.929Z,18.83
2022-12-16T07:18:53.054Z,20.70
2022-12-16T07:21:37.769Z,20.13
2022-12-16T07:24:22.764Z,19.60
2022-12-16T07:27:07.503Z,21.27
2022-12-16T07:29:52.351Z,19.33
2022-12-16T07:32:37.547Z,21.97
2022-12-16T07:35:22.659Z,31.27
2022-12-16T07:38:07.781Z,20.63
2022-12-16T07:40:52.632Z,20.03
2022-12-16T07:43:37.601Z,20.37
2022-12-16T07:46:22.713Z,19.70
2022-12-16T07:49:07.871Z,19.97
2022-12-16T07:51:52.843Z,19.70
2022-12-16T07:54:37.682Z,18.30
2022-12-16T07:57:22.729Z,20.00
2022-12-16T08:00:07.655Z,20.87
2022-12-16T08:02:53.752Z,20.33
2022-12-16T08:05:40.838Z,19.60
2022-12-16T08:08:25.839Z,21.00
2022-12-16T08:11:10.900Z,19.83
2022-12-16T08:13:55.774Z,19.20
2022-12-16T08:16:40.744Z,20.90
2022-12-16T08:19:25.822Z,18.93
2022-12-16T08:22:10.757Z,18.37
2022-12-16T08:24:56.130Z,18.63
2022-12-16T08:27:41.367Z,19.60
2022-12-16T08:30:27.023Z,18.00
2022-12-16T08:33:18.820Z,19.67
2022-12-16T08:36:04.879Z,18.23
2022-12-16T08:38:50.274Z,17.77
2022-12-16T08:41:36.213Z,19.63
2022-12-16T08:44:20.953Z,22.50
2022-12-16T08:47:06.484Z,20.47
2022-12-16T08:49:52.621Z,20.03
2022-12-16T08:52:39.831Z,20.87
2022-12-16T08:55:29.469Z,21.43
2022-12-16T08:58:14.876Z,21.63
2022-12-16T09:01:06.325Z,21.13
2022-12-16T09:03:54.021Z,20.83
2022-12-16T09:06:41.012Z,22.27
2022-12-16T09:09:26.496Z,22.03
2022-12-16T09:12:11.586Z,22.13
2022-12-16T09:14:56.709Z,21.70
2022-12-16T09:17:41.975Z,20.37
2022-12-16T09:20:27.311Z,20.77
2022-12-16T09:23:12.267Z,19.53
2022-12-16T09:25:57.520Z,20.27
2022-12-16T09:28:42.649Z,19.53
2022-12-16T09:31:27.503Z,18.73
2022-12-16T09:34:12.555Z,19.77
2022-12-16T09:36:57.573Z,20.07
2022-12-16T09:39:42.372Z,20.60
2022-12-16T09:42:46.010Z,21.93
2022-12-16T09:45:45.816Z,21.93
2022-12-16T09:48:33.671Z,22.60
2022-12-16T09:51:22.558Z,21.63
2022-12-16T09:54:08.917Z,22.23
2022-12-16T09:56:55.467Z,22.13
2022-12-16T09:59:49.069Z,22.50
2022-12-16T10:02:35.998Z,22.87
2022-12-16T10:05:21.683Z,28.13
2022-12-16T10:08:20.573Z,25.03
2022-12-16T10:11:15.735Z,24.30
2022-12-16T10:14:17.686Z,25.43
2022-12-16T10:17:04.523Z,25.63
2022-12-16T10:19:49.523Z,25.47
2022-12-16T10:22:34.312Z,23.63
2022-12-16T10:25:25.442Z,23.87
2022-12-16T10:28:15.162Z,24.80
2022-12-16T10:31:00.246Z,29.47
2022-12-16T10:33:47.636Z,29.23
2022-12-16T10:36:43.185Z,25.37
2022-12-16T10:39:54.679Z,26.03
2022-12-16T10:43:01.866Z,26.17
2022-12-16T10:45:47.730Z,25.33
2022-12-16T10:48:35.467Z,27.00
2022-12-16T10:51:20.960Z,28.27
2022-12-16T10:54:08.724Z,24.63
2022-12-16T10:57:11.612Z,27.70
2022-12-16T10:59:57.801Z,29.23
2022-12-16T11:02:43.998Z,25.80
2022-12-16T11:05:44.463Z,26.63
2022-12-16T11:08:41.834Z,26.17
2022-12-16T11:11:38.272Z,26.00
2022-12-16T11:14:34.616Z,26.57
2022-12-16T11:17:30.286Z,26.10
2022-12-16T11:20:30.570Z,27.30
2022-12-16T11:23:27.933Z,27.27
2022-12-16T11:26:30.433Z,27.80
2022-12-16T11:29:21.551Z,32.47
2022-12-16T11:32:08.528Z,35.87
2022-12-16T11:34:54.586Z,29.43
2022-12-16T11:37:40.053Z,28.57
2022-12-16T11:40:31.105Z,28.40
2022-12-16T11:43:17.211Z,30.40
2022-12-16T11:46:02.300Z,27.67
2022-12-16T11:48:56.883Z,28.47
2022-12-16T11:51:43.152Z,26.87
2022-12-16T11:54:48.246Z,28.67
2022-12-16T11:57:59.760Z,28.57
2022-12-16T12:00:44.973Z,28.43
2022-12-16T12:03:34.166Z,26.37
2022-12-16T12:06:37.628Z,28.27
2022-12-16T12:09:26.624Z,28.43
2022-12-16T12:12:26.958Z,25.67
2022-12-16T12:15:16.351Z,25.77
2022-12-16T12:18:04.646Z,26.10
2022-12-16T12:21:05.983Z,46.93
2022-12-16T12:24:08.166Z,45.87
2022-12-16T12:26:56.317Z,32.57
2022-12-16T12:30:00.568Z,29.80
2022-12-16T12:32:48.505Z,28.43
2022-12-16T12:35:58.671Z,31.27
2022-12-16T12:39:00.655Z,28.17
2022-12-16T12:42:08.238Z,32.40
2022-12-16T12:45:07.296Z,30.33
2022-12-16T12:47:54.428Z,29.70
2022-12-16T12:50:42.402Z,31.43
2022-12-16T12:53:39.874Z,32.23
2022-12-16T12:56:33.824Z,32.47
2022-12-16T12:59:23.375Z,33.17
2022-12-16T13:02:09.981Z,34.53
2022-12-16T13:04:55.771Z,35.67
2022-12-16T13:07:41.363Z,37.23
2022-12-16T13:10:49.223Z,34.07
2022-12-16T13:13:34.941Z,34.60
2022-12-16T13:16:21.326Z,35.23
2022-12-16T13:19:09.472Z,34.97
2022-12-16T13:21:56.158Z,35.03
2022-12-16T13:24:41.648Z,37.63
2022-12-16T13:27:33.269Z,34.93
2022-12-16T13:30:36.576Z,36.40
2022-12-16T13:33:23.814Z,35.43
2022-12-16T13:36:16.195Z,34.17
2022-12-16T13:39:05.560Z,35.23
2022-12-16T13:41:50.920Z,35.40
2022-12-16T13:45:14.910Z,34.30
2022-12-16T13:47:59.952Z,32.10
2022-12-16T13:51:04.011Z,30.60
2022-12-16T13:54:00.900Z,33.77
2022-12-16T13:57:06.368Z,41.67
2022-12-16T13:59:51.703Z,41.27
2022-12-16T14:02:39.732Z,35.83
2022-12-16T14:05:37.258Z,30.87
2022-12-16T14:08:24.095Z,30.73
2022-12-16T14:11:15.219Z,31.33
2022-12-16T14:14:15.673Z,33.30
2022-12-16T14:17:16.586Z,37.90
2022-12-16T14:20:04.843Z,41.30
2022-12-16T14:23:02.202Z,40.67
2022-12-16T14:25:48.093Z,38.30
2022-12-16T14:28:39.346Z,38.60
2022-12-16T14:31:30.566Z,34.70
2022-12-16T14:34:20.207Z,34.33
2022-12-16T14:37:05.542Z,42.10
2022-12-16T14:39:55.712Z,35.60
2022-12-16T14:43:11.298Z,34.10
2022-12-16T14:45:57.906Z,31.27
2022-12-16T14:48:50.380Z,29.00
2022-12-16T14:51:38.296Z,30.40
2022-12-16T14:54:41.664Z,37.47
2022-12-16T14:57:31.214Z,31.93
2022-12-16T15:00:20.469Z,34.70
2022-12-16T15:03:09.011Z,37.20
2022-12-16T15:05:55.144Z,48.13
2022-12-16T15:08:41.481Z,51.60
2022-12-16T15:11:28.634Z,49.93
2022-12-16T15:14:16.796Z,43.47
2022-12-16T15:17:02.570Z,39.20
2022-12-16T15:19:50.960Z,37.23
2022-12-16T15:22:36.501Z,39.00
2022-12-16T15:25:22.061Z,55.47
2022-12-16T15:28:15.127Z,44.63
2022-12-16T15:31:07.718Z,44.17
2022-12-16T15:33:54.657Z,40.13
2022-12-16T15:36:46.302Z,40.60
2022-12-16T15:39:37.262Z,38.43
2022-12-16T15:42:23.804Z,37.80
2022-12-16T15:45:23.989Z,35.27
2022-12-16T15:48:09.591Z,33.97
2022-12-16T15:51:13.977Z,31.30
2022-12-16T15:53:59.089Z,35.40
2022-12-16T15:56:46.117Z,35.70
2022-12-16T15:59:31.740Z,42.37
2022-12-16T16:02:16.858Z,46.27
2022-12-16T16:05:01.951Z,45.97
2022-12-16T16:07:47.254Z,47.60
2022-12-16T16:10:40.141Z,80.20
2022-12-16T16:13:25.211Z,66.27
2022-12-16T16:16:11.107Z,67.70
2022-12-16T16:18:56.472Z,53.07
2022-12-16T16:21:41.705Z,55.63
2022-12-16T16:24:28.385Z,52.17
2022-12-16T16:27:16.300Z,62.43
2022-12-16T16:30:10.362Z,65.47
2022-12-16T16:32:55.653Z,57.07
2022-12-16T16:35:41.269Z,54.43
2022-12-16T16:38:28.610Z,55.77
2022-12-16T16:41:14.039Z,53.17
2022-12-16T16:43:58.955Z,51.23
2022-12-16T16:46:44.340Z,44.70
2022-12-16T16:49:30.494Z,45.33
2022-12-16T16:52:15.955Z,47.93
2022-12-16T16:55:01.192Z,54.77
2022-12-16T16:57:51.139Z,47.60
2022-12-16T17:00:36.578Z,44.73
2022-12-16T17:03:22.003Z,42.63
2022-12-16T17:06:07.082Z,37.77
2022-12-16T17:08:52.120Z,34.90
2022-12-16T17:11:38.497Z,32.33
2022-12-16T17:14:24.212Z,34.33
2022-12-16T17:17:11.470Z,36.23
2022-12-16T17:19:59.787Z,33.60
2022-12-16T17:22:46.461Z,42.03
2022-12-16T17:25:32.278Z,43.67
2022-12-16T17:28:17.747Z,41.63
2022-12-16T17:31:03.143Z,40.97
2022-12-16T17:33:48.314Z,40.87
2022-12-16T17:36:34.962Z,42.03
2022-12-16T17:39:20.386Z,43.43
2022-12-16T17:42:05.496Z,42.17
2022-12-16T17:45:07.882Z,41.57
2022-12-16T17:47:53.193Z,41.53
2022-12-16T17:50:38.535Z,46.87
2022-12-16T17:53:23.585Z,48.60
2022-12-16T17:56:08.937Z,55.63
2022-12-16T17:58:58.115Z,49.77
2022-12-16T18:01:43.307Z,49.67
2022-12-16T18:04:28.700Z,52.00
2022-12-16T18:07:13.957Z,52.03
2022-12-16T18:09:59.191Z,55.40
2022-12-16T18:12:44.546Z,57.40
2022-12-16T18:15:29.540Z,56.83
2022-12-16T18:18:14.837Z,48.23
2022-12-16T18:21:00.199Z,49.83
2022-12-16T18:23:47.701Z,37.93
2022-12-16T18:26:33.362Z,33.13
2022-12-16T18:29:18.320Z,29.43
2022-12-16T18:32:03.365Z,29.87
2022-12-16T18:34:48.672Z,31.93
2022-12-16T18:37:33.804Z,30.20
2022-12-16T18:40:18.706Z,27.47
2022-12-16T18:43:03.880Z,27.70
2022-12-16T18:45:49.198Z,35.47
2022-12-16T18:48:34.851Z,31.83
2022-12-16T18:51:20.290Z,49.30
2022-12-16T18:54:05.798Z,49.17
2022-12-16T18:56:50.873Z,67.57
2022-12-16T18:59:36.109Z,59.57
2022-12-16T19:02:21.029Z,57.73
2022-12-16T19:05:06.503Z,60.37
2022-12-16T19:07:52.030Z,65.47
2022-12-16T19:10:37.198Z,68.27
2022-12-16T19:13:22.160Z,68.57
2022-12-16T19:16:14.222Z,69.03
2022-12-16T19:18:59.858Z,66.83
2022-12-16T19:21:51.364Z,65.33
2022-12-16T19:24:37.266Z,65.10
2022-12-16T19:27:22.702Z,60.87
2022-12-16T19:30:07.774Z,53.90
2022-12-16T19:32:53.240Z,52.47
2022-12-16T19:35:38.558Z,48.77
2022-12-16T19:38:23.771Z,51.90
2022-12-16T19:41:12.893Z,58.13
2022-12-16T19:44:05.204Z,62.47
2022-12-16T19:46:51.662Z,67.23
2022-12-16T19:49:42.344Z,67.70
2022-12-16T19:52:29.258Z,75.90
2022-12-16T19:55:17.773Z,75.67
2022-12-16T19:58:03.347Z,76.80
2022-12-16T20:00:48.766Z,80.00
2022-12-16T20:03:52.349Z,76.07
2022-12-16T20:06:41.779Z,74.50
2022-12-16T20:09:28.804Z,74.00
2022-12-16T20:12:13.952Z,73.27
2022-12-16T20:14:59.154Z,71.07
2022-12-16T20:17:44.419Z,72.17
2022-12-16T20:20:29.538Z,73.60
2022-12-16T20:23:14.688Z,69.27
2022-12-16T20:25:59.982Z,66.13
2022-12-16T20:28:45.172Z,58.83
2022-12-16T20:31:30.586Z,59.60
2022-12-16T20:34:16.069Z,57.33
2022-12-16T20:37:01.415Z,56.53
2022-12-16T20:39:56.456Z,56.93
2022-12-16T20:42:42.832Z,57.73
2022-12-16T20:45:28.549Z,56.87
2022-12-16T20:48:16.826Z,53.17
2022-12-16T20:51:02.571Z,48.97
2022-12-16T20:53:48.025Z,46.77
2022-12-16T20:56:33.135Z,47.47
2022-12-16T20:59:18.106Z,47.33
2022-12-16T21:02:29.075Z,46.30
2022-12-16T21:05:08.484Z,50.53
2022-12-16T21:07:54.869Z,53.57
2022-12-16T21:10:42.249Z,51.53
2022-12-16T21:13:31.600Z,50.50
2022-12-16T21:16:17.385Z,49.23
2022-12-16T21:19:02.938Z,62.47
2022-12-16T21:21:48.432Z,49.93
2022-12-16T21:24:34.003Z,47.17
2022-12-16T21:27:19.060Z,43.47
2022-12-16T21:30:04.403Z,59.00
2022-12-16T21:32:49.249Z,60.17
2022-12-16T21:35:34.352Z,59.77
2022-12-16T21:38:19.453Z,40.87
2022-12-16T21:41:10.913Z,33.07
2022-12-16T21:43:56.405Z,32.97
2022-12-16T21:46:41.942Z,32.10
2022-12-16T21:49:26.971Z,33.40
2022-12-16T21:52:12.536Z,31.57
2022-12-16T21:54:57.398Z,31.63
2022-12-16T21:57:42.557Z,31.13
2022-12-16T22:00:28.215Z,33.10
2022-12-16T22:03:16.875Z,33.10
2022-12-16T22:06:18.834Z,31.77
2022-12-16T22:09:03.721Z,31.20
2022-12-16T22:11:49.029Z,32.00
2022-12-16T22:14:33.934Z,31.37
2022-12-16T22:17:19.233Z,32.23
2022-12-16T22:20:04.831Z,47.47
2022-12-16T22:22:52.713Z,43.00
2022-12-16T22:25:37.791Z,53.23
2022-12-16T22:28:24.771Z,42.50
2022-12-16T22:31:15.763Z,53.57
2022-12-16T22:34:01.415Z,46.67
2022-12-16T22:36:46.821Z,41.83
2022-12-16T22:39:31.433Z,45.03
2022-12-16T22:42:16.636Z,50.97
2022-12-16T22:45:01.973Z,48.90
2022-12-16T22:47:47.316Z,49.57
2022-12-16T22:50:32.338Z,60.90
2022-12-16T22:53:17.492Z,60.70
2022-12-16T22:56:08.474Z,62.87
2022-12-16T22:58:56.223Z,65.63
2022-12-16T23:01:41.501Z,69.40
2022-12-16T23:04:26.752Z,64.90
2022-12-16T23:07:12.100Z,63.63
2022-12-16T23:12:59.349Z,61.63
2022-12-16T23:15:44.548Z,63.27
2022-12-16T23:18:29.887Z,63.43
2022-12-16T23:21:14.886Z,66.10
2022-12-16T23:24:00.089Z,68.33
2022-12-16T23:26:58.946Z,70.47
2022-12-16T23:29:43.713Z,70.20
2022-12-16T23:32:31.569Z,72.50
2022-12-16T23:35:16.873Z,69.97
2022-12-16T23:38:03.769Z,70.57
2022-12-16T23:40:48.889Z,70.37
2022-12-16T23:43:33.963Z,71.77
2022-12-16T23:46:19.250Z,71.30
2022-12-16T23:49:05.440Z,67.77
2022-12-16T23:51:50.163Z,70.20
2022-12-16T23:54:35.363Z,67.90
2022-12-16T23:57:20.449Z,69.20
